Nearby METAR Reports

 

EGQS - Lossiemouth Raf, United Kingdom
Distance from station: NW 60mi, 97km
Updated: 05/12/2019 15:19
Overcast
Overcast
 Wind from SSW
Wind: SSW 9 mph , 15 km/h
Temperature: 9°C
Wind Chill: 7°C
Dew Point: 6°C
Humidity: 82%
Barometer: 988 hPa
Clouds: Overcast
Visibility: 6 miles , 10 km
Cloud details: Few Clouds 1067 m
Partly cloudy 1219 m
Overcast 3048 m
2019/12/05 15:19 EGQS 051519Z 21008KT 9999 FEW035 SCT040 OVC100 09/06 Q0988 NOSIG RMK BLU BLU